sensor_id;sensor_type;location;lat;lon;timestamp;P1;durP1;ratioP1;P2;durP2;ratioP2
5787;SDS011;2920;48.158;12.254;2023-03-26T00:00:22;0.88;;;0.60;;
5787;SDS011;2920;48.158;12.254;2023-03-26T00:02:47;2.60;;;0.80;;
5787;SDS011;2920;48.158;12.254;2023-03-26T00:05:12;2.15;;;0.73;;
5787;SDS011;2920;48.158;12.254;2023-03-26T00:07:38;1.20;;;0.63;;
5787;SDS011;2920;48.158;12.254;2023-03-26T00:10:04;3.95;;;0.90;;
5787;SDS011;2920;48.158;12.254;2023-03-26T00:12:30;2.63;;;1.30;;
5787;SDS011;2920;48.158;12.254;2023-03-26T00:14:56;3.88;;;1.00;;
5787;SDS011;2920;48.158;12.254;2023-03-26T00:17:21;3.22;;;0.70;;
5787;SDS011;2920;48.158;12.254;2023-03-26T00:19:46;2.42;;;0.95;;
5787;SDS011;2920;48.158;12.254;2023-03-26T00:22:11;5.30;;;0.57;;
5787;SDS011;2920;48.158;12.254;2023-03-26T00:24:38;1.38;;;0.82;;
5787;SDS011;2920;48.158;12.254;2023-03-26T00:27:04;1.63;;;0.70;;
5787;SDS011;2920;48.158;12.254;2023-03-26T00:29:29;2.42;;;0.60;;
5787;SDS011;2920;48.158;12.254;2023-03-26T00:31:57;2.35;;;1.00;;
5787;SDS011;2920;48.158;12.254;2023-03-26T00:34:23;1.52;;;0.90;;
5787;SDS011;2920;48.158;12.254;2023-03-26T00:36:48;4.47;;;0.75;;
5787;SDS011;2920;48.158;12.254;2023-03-26T00:39:18;1.10;;;0.50;;
5787;SDS011;2920;48.158;12.254;2023-03-26T00:41:43;2.40;;;0.80;;
5787;SDS011;2920;48.158;12.254;2023-03-26T00:44:09;3.47;;;0.65;;
5787;SDS011;2920;48.158;12.254;2023-03-26T00:46:34;2.40;;;0.73;;
5787;SDS011;2920;48.158;12.254;2023-03-26T00:49:00;1.73;;;0.63;;
5787;SDS011;2920;48.158;12.254;2023-03-26T00:51:27;1.05;;;0.70;;
5787;SDS011;2920;48.158;12.254;2023-03-26T00:53:53;4.03;;;0.90;;
5787;SDS011;2920;48.158;12.254;2023-03-26T00:56:19;1.42;;;0.88;;
5787;SDS011;2920;48.158;12.254;2023-03-26T00:58:45;4.55;;;1.00;;
5787;SDS011;2920;48.158;12.254;2023-03-26T01:01:13;4.40;;;1.00;;
5787;SDS011;2920;48.158;12.254;2023-03-26T01:03:41;2.17;;;0.50;;
5787;SDS011;2920;48.158;12.254;2023-03-26T01:06:29;2.97;;;1.00;;
5787;SDS011;2920;48.158;12.254;2023-03-26T01:08:57;2.13;;;1.10;;
5787;SDS011;2920;48.158;12.254;2023-03-26T01:11:28;1.65;;;0.68;;
5787;SDS011;2920;48.158;12.254;2023-03-26T01:14:03;2.85;;;1.00;;
5787;SDS011;2920;48.158;12.254;2023-03-26T01:16:36;1.23;;;0.70;;
5787;SDS011;2920;48.158;12.254;2023-03-26T01:19:08;3.13;;;1.02;;
5787;SDS011;2920;48.158;12.254;2023-03-26T01:21:40;1.90;;;0.70;;
5787;SDS011;2920;48.158;12.254;2023-03-26T01:24:07;2.97;;;0.55;;
5787;SDS011;2920;48.158;12.254;2023-03-26T01:28:58;1.35;;;0.70;;
5787;SDS011;2920;48.158;12.254;2023-03-26T01:34:09;0.77;;;0.45;;
5787;SDS011;2920;48.158;12.254;2023-03-26T01:39:44;3.50;;;0.73;;
5787;SDS011;2920;48.158;12.254;2023-03-26T01:42:20;6.90;;;0.85;;
5787;SDS011;2920;48.158;12.254;2023-03-26T01:44:54;6.75;;;1.02;;
5787;SDS011;2920;48.158;12.254;2023-03-26T01:47:22;4.15;;;0.70;;
5787;SDS011;2920;48.158;12.254;2023-03-26T01:49:47;2.17;;;0.82;;
5787;SDS011;2920;48.158;12.254;2023-03-26T01:52:14;3.17;;;0.98;;
5787;SDS011;2920;48.158;12.254;2023-03-26T01:54:41;2.05;;;0.93;;
5787;SDS011;2920;48.158;12.254;2023-03-26T02:02:14;2.60;;;0.80;;
5787;SDS011;2920;48.158;12.254;2023-03-26T02:05:00;5.63;;;1.00;;
5787;SDS011;2920;48.158;12.254;2023-03-26T02:10:46;5.32;;;1.20;;
5787;SDS011;2920;48.158;12.254;2023-03-26T02:13:15;3.15;;;0.70;;
5787;SDS011;2920;48.158;12.254;2023-03-26T02:15:40;3.83;;;1.10;;
5787;SDS011;2920;48.158;12.254;2023-03-26T02:18:18;3.75;;;0.90;;
5787;SDS011;2920;48.158;12.254;2023-03-26T02:20:47;3.33;;;0.90;;
5787;SDS011;2920;48.158;12.254;2023-03-26T02:23:13;3.88;;;1.05;;
5787;SDS011;2920;48.158;12.254;2023-03-26T02:25:38;4.80;;;1.10;;
5787;SDS011;2920;48.158;12.254;2023-03-26T02:28:05;1.98;;;0.80;;
5787;SDS011;2920;48.158;12.254;2023-03-26T02:30:31;3.55;;;1.08;;
5787;SDS011;2920;48.158;12.254;2023-03-26T02:32:57;4.22;;;0.93;;
5787;SDS011;2920;48.158;12.254;2023-03-26T02:35:23;3.17;;;0.93;;
5787;SDS011;2920;48.158;12.254;2023-03-26T02:37:49;1.75;;;1.00;;
5787;SDS011;2920;48.158;12.254;2023-03-26T02:40:15;3.40;;;1.13;;
5787;SDS011;2920;48.158;12.254;2023-03-26T02:42:41;5.95;;;1.38;;
5787;SDS011;2920;48.158;12.254;2023-03-26T02:45:07;4.95;;;1.02;;
5787;SDS011;2920;48.158;12.254;2023-03-26T02:47:33;2.55;;;1.10;;
5787;SDS011;2920;48.158;12.254;2023-03-26T02:49:58;1.30;;;0.65;;
5787;SDS011;2920;48.158;12.254;2023-03-26T02:52:23;1.38;;;0.95;;
5787;SDS011;2920;48.158;12.254;2023-03-26T02:54:49;1.85;;;0.52;;
5787;SDS011;2920;48.158;12.254;2023-03-26T02:57:14;4.65;;;1.20;;
5787;SDS011;2920;48.158;12.254;2023-03-26T02:59:39;3.15;;;0.88;;
5787;SDS011;2920;48.158;12.254;2023-03-26T03:02:05;3.97;;;0.70;;
5787;SDS011;2920;48.158;12.254;2023-03-26T03:04:30;2.45;;;0.80;;
5787;SDS011;2920;48.158;12.254;2023-03-26T03:06:55;3.80;;;0.70;;
5787;SDS011;2920;48.158;12.254;2023-03-26T03:09:22;5.57;;;0.73;;
5787;SDS011;2920;48.158;12.254;2023-03-26T03:11:49;2.20;;;1.00;;
5787;SDS011;2920;48.158;12.254;2023-03-26T03:14:14;1.48;;;0.73;;
5787;SDS011;2920;48.158;12.254;2023-03-26T03:16:40;1.23;;;0.63;;
5787;SDS011;2920;48.158;12.254;2023-03-26T03:19:05;2.60;;;0.85;;
5787;SDS011;2920;48.158;12.254;2023-03-26T03:21:30;0.90;;;0.60;;
5787;SDS011;2920;48.158;12.254;2023-03-26T03:23:56;1.85;;;0.80;;
5787;SDS011;2920;48.158;12.254;2023-03-26T03:26:22;2.38;;;1.08;;
5787;SDS011;2920;48.158;12.254;2023-03-26T03:28:51;3.08;;;0.88;;
5787;SDS011;2920;48.158;12.254;2023-03-26T03:31:17;5.07;;;0.90;;
5787;SDS011;2920;48.158;12.254;2023-03-26T03:33:43;1.75;;;0.73;;
5787;SDS011;2920;48.158;12.254;2023-03-26T03:36:10;1.65;;;0.80;;
5787;SDS011;2920;48.158;12.254;2023-03-26T03:38:37;1.42;;;0.98;;
5787;SDS011;2920;48.158;12.254;2023-03-26T03:41:03;1.83;;;0.45;;
5787;SDS011;2920;48.158;12.254;2023-03-26T03:43:29;5.07;;;0.82;;
5787;SDS011;2920;48.158;12.254;2023-03-26T03:45:56;2.50;;;0.57;;
5787;SDS011;2920;48.158;12.254;2023-03-26T03:48:22;2.00;;;0.80;;
5787;SDS011;2920;48.158;12.254;2023-03-26T03:50:47;2.85;;;0.80;;
5787;SDS011;2920;48.158;12.254;2023-03-26T03:53:12;2.20;;;0.60;;
5787;SDS011;2920;48.158;12.254;2023-03-26T03:55:39;4.95;;;0.90;;
5787;SDS011;2920;48.158;12.254;2023-03-26T03:58:06;2.08;;;0.65;;
5787;SDS011;2920;48.158;12.254;2023-03-26T04:00:33;2.47;;;0.88;;
5787;SDS011;2920;48.158;12.254;2023-03-26T04:03:02;2.15;;;0.55;;
5787;SDS011;2920;48.158;12.254;2023-03-26T04:05:30;1.63;;;0.70;;
5787;SDS011;2920;48.158;12.254;2023-03-26T04:07:55;1.83;;;1.00;;
5787;SDS011;2920;48.158;12.254;2023-03-26T04:10:21;1.75;;;0.60;;
5787;SDS011;2920;48.158;12.254;2023-03-26T04:12:46;0.75;;;0.70;;
5787;SDS011;2920;48.158;12.254;2023-03-26T04:15:11;0.50;;;0.50;;
5787;SDS011;2920;48.158;12.254;2023-03-26T04:17:37;2.08;;;0.75;;
5787;SDS011;2920;48.158;12.254;2023-03-26T04:20:06;2.17;;;1.10;;
5787;SDS011;2920;48.158;12.254;2023-03-26T04:22:34;1.17;;;0.90;;
5787;SDS011;2920;48.158;12.254;2023-03-26T04:25:00;4.38;;;0.90;;
5787;SDS011;2920;48.158;12.254;2023-03-26T04:27:27;4.47;;;1.40;;
5787;SDS011;2920;48.158;12.254;2023-03-26T04:29:55;1.17;;;0.65;;
5787;SDS011;2920;48.158;12.254;2023-03-26T04:32:22;6.32;;;1.48;;
5787;SDS011;2920;48.158;12.254;2023-03-26T04:34:50;4.88;;;0.77;;
5787;SDS011;2920;48.158;12.254;2023-03-26T04:37:21;4.40;;;1.08;;
5787;SDS011;2920;48.158;12.254;2023-03-26T04:39:50;4.35;;;1.00;;
5787;SDS011;2920;48.158;12.254;2023-03-26T04:42:15;1.40;;;0.85;;
5787;SDS011;2920;48.158;12.254;2023-03-26T04:44:43;2.17;;;0.82;;
5787;SDS011;2920;48.158;12.254;2023-03-26T04:47:11;1.05;;;0.93;;
5787;SDS011;2920;48.158;12.254;2023-03-26T04:49:37;3.30;;;1.15;;
5787;SDS011;2920;48.158;12.254;2023-03-26T04:52:02;6.00;;;1.30;;
5787;SDS011;2920;48.158;12.254;2023-03-26T04:54:27;5.20;;;1.05;;
5787;SDS011;2920;48.158;12.254;2023-03-26T04:56:54;1.77;;;1.00;;
5787;SDS011;2920;48.158;12.254;2023-03-26T04:59:26;1.75;;;1.10;;
5787;SDS011;2920;48.158;12.254;2023-03-26T05:01:59;3.45;;;1.13;;
5787;SDS011;2920;48.158;12.254;2023-03-26T05:04:25;3.75;;;1.10;;
5787;SDS011;2920;48.158;12.254;2023-03-26T05:06:51;0.70;;;0.70;;
5787;SDS011;2920;48.158;12.254;2023-03-26T05:09:18;2.47;;;0.77;;
5787;SDS011;2920;48.158;12.254;2023-03-26T05:11:43;0.65;;;0.65;;
5787;SDS011;2920;48.158;12.254;2023-03-26T05:14:09;6.43;;;1.02;;
5787;SDS011;2920;48.158;12.254;2023-03-26T05:16:35;3.88;;;0.98;;
5787;SDS011;2920;48.158;12.254;2023-03-26T05:19:01;5.55;;;1.50;;
5787;SDS011;2920;48.158;12.254;2023-03-26T05:21:26;3.70;;;1.08;;
5787;SDS011;2920;48.158;12.254;2023-03-26T05:23:51;3.33;;;1.20;;
5787;SDS011;2920;48.158;12.254;2023-03-26T05:26:17;3.67;;;0.85;;
5787;SDS011;2920;48.158;12.254;2023-03-26T05:28:42;2.88;;;1.30;;
5787;SDS011;2920;48.158;12.254;2023-03-26T05:31:08;2.92;;;1.25;;
5787;SDS011;2920;48.158;12.254;2023-03-26T05:33:34;2.80;;;1.00;;
5787;SDS011;2920;48.158;12.254;2023-03-26T05:36:00;0.90;;;0.77;;
5787;SDS011;2920;48.158;12.254;2023-03-26T05:38:37;1.73;;;1.15;;
5787;SDS011;2920;48.158;12.254;2023-03-26T05:41:03;2.60;;;1.08;;
5787;SDS011;2920;48.158;12.254;2023-03-26T05:43:30;2.70;;;1.13;;
5787;SDS011;2920;48.158;12.254;2023-03-26T05:45:56;2.35;;;1.10;;
5787;SDS011;2920;48.158;12.254;2023-03-26T05:48:21;1.27;;;0.65;;
5787;SDS011;2920;48.158;12.254;2023-03-26T05:50:48;1.90;;;0.70;;
5787;SDS011;2920;48.158;12.254;2023-03-26T05:53:14;1.85;;;1.10;;
5787;SDS011;2920;48.158;12.254;2023-03-26T05:55:41;4.10;;;0.93;;
5787;SDS011;2920;48.158;12.254;2023-03-26T05:58:09;2.38;;;1.33;;
5787;SDS011;2920;48.158;12.254;2023-03-26T06:00:35;3.55;;;1.15;;
5787;SDS011;2920;48.158;12.254;2023-03-26T06:03:03;0.55;;;0.55;;
5787;SDS011;2920;48.158;12.254;2023-03-26T06:05:33;3.63;;;0.90;;
5787;SDS011;2920;48.158;12.254;2023-03-26T06:08:01;4.45;;;1.30;;
5787;SDS011;2920;48.158;12.254;2023-03-26T06:10:27;3.45;;;1.02;;
5787;SDS011;2920;48.158;12.254;2023-03-26T06:12:52;2.47;;;0.88;;
5787;SDS011;2920;48.158;12.254;2023-03-26T06:15:18;1.65;;;1.00;;
5787;SDS011;2920;48.158;12.254;2023-03-26T06:17:43;1.80;;;0.80;;
5787;SDS011;2920;48.158;12.254;2023-03-26T06:20:08;1.63;;;0.88;;
5787;SDS011;2920;48.158;12.254;2023-03-26T06:22:34;1.98;;;0.95;;
5787;SDS011;2920;48.158;12.254;2023-03-26T06:25:00;3.17;;;1.38;;
5787;SDS011;2920;48.158;12.254;2023-03-26T06:27:25;1.48;;;1.08;;
5787;SDS011;2920;48.158;12.254;2023-03-26T06:29:50;2.38;;;0.93;;
5787;SDS011;2920;48.158;12.254;2023-03-26T06:32:15;2.83;;;1.70;;
5787;SDS011;2920;48.158;12.254;2023-03-26T06:34:41;0.82;;;0.82;;
5787;SDS011;2920;48.158;12.254;2023-03-26T06:37:06;4.82;;;1.05;;
5787;SDS011;2920;48.158;12.254;2023-03-26T06:39:31;2.88;;;1.55;;
5787;SDS011;2920;48.158;12.254;2023-03-26T06:41:57;3.90;;;0.90;;
5787;SDS011;2920;48.158;12.254;2023-03-26T06:44:22;1.58;;;1.02;;
5787;SDS011;2920;48.158;12.254;2023-03-26T06:46:47;4.93;;;1.52;;
5787;SDS011;2920;48.158;12.254;2023-03-26T06:49:13;2.83;;;1.17;;
5787;SDS011;2920;48.158;12.254;2023-03-26T06:51:38;6.43;;;1.20;;
5787;SDS011;2920;48.158;12.254;2023-03-26T06:54:05;3.58;;;1.33;;
5787;SDS011;2920;48.158;12.254;2023-03-26T06:56:30;3.22;;;1.40;;
5787;SDS011;2920;48.158;12.254;2023-03-26T06:58:55;6.50;;;1.42;;
5787;SDS011;2920;48.158;12.254;2023-03-26T07:01:21;3.33;;;1.38;;
5787;SDS011;2920;48.158;12.254;2023-03-26T07:03:46;3.88;;;1.30;;
5787;SDS011;2920;48.158;12.254;2023-03-26T07:06:12;3.03;;;1.30;;
5787;SDS011;2920;48.158;12.254;2023-03-26T07:08:37;3.40;;;1.35;;
5787;SDS011;2920;48.158;12.254;2023-03-26T07:11:02;4.72;;;1.38;;
5787;SDS011;2920;48.158;12.254;2023-03-26T07:13:28;3.22;;;1.30;;
5787;SDS011;2920;48.158;12.254;2023-03-26T07:15:53;3.33;;;1.42;;
5787;SDS011;2920;48.158;12.254;2023-03-26T07:18:18;1.83;;;0.85;;
5787;SDS011;2920;48.158;12.254;2023-03-26T07:20:44;3.80;;;1.25;;
5787;SDS011;2920;48.158;12.254;2023-03-26T07:23:10;4.15;;;1.20;;
5787;SDS011;2920;48.158;12.254;2023-03-26T07:25:37;6.38;;;1.30;;
5787;SDS011;2920;48.158;12.254;2023-03-26T07:33:37;3.95;;;1.15;;
5787;SDS011;2920;48.158;12.254;2023-03-26T07:36:25;5.75;;;1.35;;
5787;SDS011;2920;48.158;12.254;2023-03-26T07:39:18;3.92;;;1.33;;
5787;SDS011;2920;48.158;12.254;2023-03-26T07:44:39;3.05;;;0.98;;
5787;SDS011;2920;48.158;12.254;2023-03-26T07:47:30;4.63;;;0.88;;
5787;SDS011;2920;48.158;12.254;2023-03-26T07:49:54;5.38;;;1.23;;
5787;SDS011;2920;48.158;12.254;2023-03-26T07:52:21;1.30;;;1.08;;
5787;SDS011;2920;48.158;12.254;2023-03-26T07:54:47;1.90;;;1.10;;
5787;SDS011;2920;48.158;12.254;2023-03-26T07:57:15;1.08;;;0.80;;
5787;SDS011;2920;48.158;12.254;2023-03-26T08:00:08;4.18;;;1.10;;
5787;SDS011;2920;48.158;12.254;2023-03-26T08:10:56;2.33;;;0.93;;
5787;SDS011;2920;48.158;12.254;2023-03-26T08:13:46;3.38;;;0.95;;
5787;SDS011;2920;48.158;12.254;2023-03-26T08:16:45;4.07;;;1.33;;
5787;SDS011;2920;48.158;12.254;2023-03-26T08:19:32;5.25;;;1.38;;
5787;SDS011;2920;48.158;12.254;2023-03-26T08:22:21;3.08;;;0.80;;
5787;SDS011;2920;48.158;12.254;2023-03-26T08:32:40;2.15;;;0.80;;
5787;SDS011;2920;48.158;12.254;2023-03-26T08:35:05;4.20;;;1.13;;
5787;SDS011;2920;48.158;12.254;2023-03-26T08:37:31;5.18;;;1.52;;
5787;SDS011;2920;48.158;12.254;2023-03-26T08:39:56;10.07;;;4.50;;
5787;SDS011;2920;48.158;12.254;2023-03-26T09:05:24;5.43;;;1.30;;
5787;SDS011;2920;48.158;12.254;2023-03-26T09:10:49;2.67;;;1.17;;
5787;SDS011;2920;48.158;12.254;2023-03-26T09:21:31;4.57;;;1.10;;
5787;SDS011;2920;48.158;12.254;2023-03-26T09:24:20;4.55;;;1.40;;
5787;SDS011;2920;48.158;12.254;2023-03-26T09:35:37;3.13;;;1.52;;
5787;SDS011;2920;48.158;12.254;2023-03-26T09:41:01;3.92;;;1.40;;
5787;SDS011;2920;48.158;12.254;2023-03-26T09:46:28;1.77;;;1.35;;
5787;SDS011;2920;48.158;12.254;2023-03-26T09:49:01;3.80;;;2.03;;
5787;SDS011;2920;48.158;12.254;2023-03-26T10:08:51;5.93;;;1.08;;
5787;SDS011;2920;48.158;12.254;2023-03-26T10:11:51;3.78;;;2.00;;
5787;SDS011;2920;48.158;12.254;2023-03-26T10:14:34;4.50;;;1.20;;
5787;SDS011;2920;48.158;12.254;2023-03-26T10:25:12;2.58;;;1.52;;
5787;SDS011;2920;48.158;12.254;2023-03-26T10:36:33;7.45;;;1.50;;
5787;SDS011;2920;48.158;12.254;2023-03-26T10:39:20;3.97;;;1.10;;
5787;SDS011;2920;48.158;12.254;2023-03-26T10:41:59;4.45;;;1.35;;
5787;SDS011;2920;48.158;12.254;2023-03-26T10:44:39;2.13;;;1.00;;
5787;SDS011;2920;48.158;12.254;2023-03-26T10:52:41;4.57;;;2.80;;
5787;SDS011;2920;48.158;12.254;2023-03-26T10:55:20;2.30;;;1.23;;
5787;SDS011;2920;48.158;12.254;2023-03-26T11:00:23;4.00;;;1.42;;
5787;SDS011;2920;48.158;12.254;2023-03-26T11:13:10;3.92;;;1.30;;
5787;SDS011;2920;48.158;12.254;2023-03-26T11:15:47;2.15;;;1.10;;
5787;SDS011;2920;48.158;12.254;2023-03-26T11:21:16;3.45;;;1.08;;
5787;SDS011;2920;48.158;12.254;2023-03-26T11:24:24;4.68;;;1.20;;
5787;SDS011;2920;48.158;12.254;2023-03-26T11:27:00;5.70;;;1.42;;
5787;SDS011;2920;48.158;12.254;2023-03-26T11:35:31;2.53;;;1.17;;
5787;SDS011;2920;48.158;12.254;2023-03-26T11:38:45;1.80;;;0.95;;
5787;SDS011;2920;48.158;12.254;2023-03-26T11:40:54;4.97;;;1.33;;
5787;SDS011;2920;48.158;12.254;2023-03-26T11:43:25;5.63;;;1.52;;
5787;SDS011;2920;48.158;12.254;2023-03-26T11:45:54;1.50;;;1.05;;
5787;SDS011;2920;48.158;12.254;2023-03-26T11:48:29;1.90;;;1.15;;
5787;SDS011;2920;48.158;12.254;2023-03-26T11:51:00;3.20;;;1.42;;
5787;SDS011;2920;48.158;12.254;2023-03-26T11:53:38;2.67;;;0.90;;
5787;SDS011;2920;48.158;12.254;2023-03-26T11:56:05;4.18;;;1.02;;
5787;SDS011;2920;48.158;12.254;2023-03-26T11:58:39;1.90;;;1.30;;
5787;SDS011;2920;48.158;12.254;2023-03-26T12:01:13;4.28;;;1.10;;
5787;SDS011;2920;48.158;12.254;2023-03-26T12:03:39;2.63;;;1.00;;
5787;SDS011;2920;48.158;12.254;2023-03-26T12:06:09;6.57;;;1.50;;
5787;SDS011;2920;48.158;12.254;2023-03-26T12:08:47;3.45;;;1.27;;
5787;SDS011;2920;48.158;12.254;2023-03-26T12:11:12;1.20;;;1.10;;
5787;SDS011;2920;48.158;12.254;2023-03-26T12:13:38;2.92;;;1.15;;
5787;SDS011;2920;48.158;12.254;2023-03-26T12:16:09;2.47;;;1.67;;
5787;SDS011;2920;48.158;12.254;2023-03-26T12:18:35;2.42;;;1.23;;
5787;SDS011;2920;48.158;12.254;2023-03-26T12:21:06;4.95;;;1.33;;
5787;SDS011;2920;48.158;12.254;2023-03-26T12:26:10;5.65;;;1.77;;
5787;SDS011;2920;48.158;12.254;2023-03-26T12:28:42;1.83;;;1.27;;
5787;SDS011;2920;48.158;12.254;2023-03-26T12:31:12;3.03;;;1.25;;
5787;SDS011;2920;48.158;12.254;2023-03-26T12:33:43;2.10;;;1.10;;
5787;SDS011;2920;48.158;12.254;2023-03-26T12:38:43;2.40;;;2.15;;
5787;SDS011;2920;48.158;12.254;2023-03-26T12:48:58;3.72;;;1.58;;
5787;SDS011;2920;48.158;12.254;2023-03-26T13:02:38;2.20;;;1.85;;
5787;SDS011;2920;48.158;12.254;2023-03-26T13:16:36;3.42;;;2.40;;
5787;SDS011;2920;48.158;12.254;2023-03-26T13:19:13;2.47;;;1.38;;
5787;SDS011;2920;48.158;12.254;2023-03-26T13:29:34;2.65;;;1.20;;
5787;SDS011;2920;48.158;12.254;2023-03-26T13:37:41;4.63;;;2.03;;
5787;SDS011;2920;48.158;12.254;2023-03-26T13:40:15;4.53;;;1.58;;
5787;SDS011;2920;48.158;12.254;2023-03-26T13:48:46;3.45;;;1.75;;
5787;SDS011;2920;48.158;12.254;2023-03-26T13:51:18;2.35;;;1.52;;
5787;SDS011;2920;48.158;12.254;2023-03-26T13:53:49;5.38;;;1.95;;
5787;SDS011;2920;48.158;12.254;2023-03-26T13:56:18;2.53;;;1.60;;
5787;SDS011;2920;48.158;12.254;2023-03-26T13:59:00;2.92;;;1.77;;
5787;SDS011;2920;48.158;12.254;2023-03-26T14:01:35;1.98;;;1.20;;
5787;SDS011;2920;48.158;12.254;2023-03-26T14:04:11;1.85;;;0.98;;
5787;SDS011;2920;48.158;12.254;2023-03-26T14:12:15;1.63;;;1.05;;
5787;SDS011;2920;48.158;12.254;2023-03-26T14:14:53;3.17;;;1.40;;
5787;SDS011;2920;48.158;12.254;2023-03-26T14:17:25;1.20;;;1.05;;
5787;SDS011;2920;48.158;12.254;2023-03-26T14:37:06;1.52;;;0.80;;
5787;SDS011;2920;48.158;12.254;2023-03-26T14:42:42;1.33;;;0.93;;
5787;SDS011;2920;48.158;12.254;2023-03-26T14:45:51;1.02;;;0.63;;
5787;SDS011;2920;48.158;12.254;2023-03-26T14:51:35;0.98;;;0.52;;
5787;SDS011;2920;48.158;12.254;2023-03-26T14:54:07;1.25;;;0.85;;
5787;SDS011;2920;48.158;12.254;2023-03-26T14:59:50;1.13;;;0.60;;
5787;SDS011;2920;48.158;12.254;2023-03-26T15:28:08;0.50;;;0.50;;
5787;SDS011;2920;48.158;12.254;2023-03-26T15:33:42;3.50;;;0.60;;
5787;SDS011;2920;48.158;12.254;2023-03-26T15:44:48;1.02;;;0.60;;
5787;SDS011;2920;48.158;12.254;2023-03-26T15:50:09;0.40;;;0.40;;
5787;SDS011;2920;48.158;12.254;2023-03-26T15:52:38;0.77;;;0.65;;
5787;SDS011;2920;48.158;12.254;2023-03-26T16:00:21;0.82;;;0.57;;
5787;SDS011;2920;48.158;12.254;2023-03-26T16:11:01;4.38;;;1.65;;
5787;SDS011;2920;48.158;12.254;2023-03-26T16:13:33;3.92;;;1.30;;
5787;SDS011;2920;48.158;12.254;2023-03-26T16:21:00;1.17;;;0.55;;
5787;SDS011;2920;48.158;12.254;2023-03-26T16:23:35;2.50;;;0.90;;
5787;SDS011;2920;48.158;12.254;2023-03-26T16:31:17;1.63;;;0.90;;
5787;SDS011;2920;48.158;12.254;2023-03-26T16:44:17;2.47;;;0.80;;
5787;SDS011;2920;48.158;12.254;2023-03-26T16:56:05;2.67;;;1.38;;
5787;SDS011;2920;48.158;12.254;2023-03-26T17:01:32;1.27;;;0.90;;
5787;SDS011;2920;48.158;12.254;2023-03-26T17:04:02;2.17;;;0.70;;
5787;SDS011;2920;48.158;12.254;2023-03-26T17:09:00;2.20;;;0.70;;
5787;SDS011;2920;48.158;12.254;2023-03-26T17:22:44;2.80;;;0.65;;
5787;SDS011;2920;48.158;12.254;2023-03-26T17:25:18;1.63;;;0.60;;
5787;SDS011;2920;48.158;12.254;2023-03-26T17:35:50;1.67;;;0.73;;
5787;SDS011;2920;48.158;12.254;2023-03-26T17:41:02;3.80;;;0.90;;
5787;SDS011;2920;48.158;12.254;2023-03-26T17:46:01;0.40;;;0.40;;
5787;SDS011;2920;48.158;12.254;2023-03-26T17:48:37;5.00;;;0.40;;
5787;SDS011;2920;48.158;12.254;2023-03-26T17:54:12;3.80;;;0.75;;
5787;SDS011;2920;48.158;12.254;2023-03-26T17:56:41;1.77;;;0.77;;
5787;SDS011;2920;48.158;12.254;2023-03-26T17:59:07;0.43;;;0.43;;
5787;SDS011;2920;48.158;12.254;2023-03-26T18:01:43;0.88;;;0.57;;
5787;SDS011;2920;48.158;12.254;2023-03-26T18:06:48;1.23;;;0.60;;
5787;SDS011;2920;48.158;12.254;2023-03-26T18:18:07;1.00;;;0.70;;
5787;SDS011;2920;48.158;12.254;2023-03-26T18:20:47;0.93;;;0.52;;
5787;SDS011;2920;48.158;12.254;2023-03-26T18:23:21;1.73;;;0.80;;
5787;SDS011;2920;48.158;12.254;2023-03-26T18:26:09;0.70;;;0.50;;
5787;SDS011;2920;48.158;12.254;2023-03-26T18:28:39;0.82;;;0.55;;
5787;SDS011;2920;48.158;12.254;2023-03-26T18:31:15;1.00;;;0.63;;
5787;SDS011;2920;48.158;12.254;2023-03-26T18:33:43;1.05;;;0.70;;
5787;SDS011;2920;48.158;12.254;2023-03-26T18:36:11;4.00;;;0.60;;
5787;SDS011;2920;48.158;12.254;2023-03-26T18:38:38;1.02;;;0.68;;
5787;SDS011;2920;48.158;12.254;2023-03-26T18:41:05;0.50;;;0.40;;
5787;SDS011;2920;48.158;12.254;2023-03-26T18:43:31;0.65;;;0.60;;
5787;SDS011;2920;48.158;12.254;2023-03-26T18:45:58;0.80;;;0.52;;
5787;SDS011;2920;48.158;12.254;2023-03-26T18:48:23;0.70;;;0.50;;
5787;SDS011;2920;48.158;12.254;2023-03-26T18:50:50;0.50;;;0.50;;
5787;SDS011;2920;48.158;12.254;2023-03-26T18:53:17;0.65;;;0.45;;
5787;SDS011;2920;48.158;12.254;2023-03-26T18:55:48;0.70;;;0.40;;
5787;SDS011;2920;48.158;12.254;2023-03-26T19:00:51;0.60;;;0.40;;
5787;SDS011;2920;48.158;12.254;2023-03-26T19:03:23;0.88;;;0.30;;
5787;SDS011;2920;48.158;12.254;2023-03-26T19:05:50;0.47;;;0.30;;
5787;SDS011;2920;48.158;12.254;2023-03-26T19:08:16;0.38;;;0.30;;
5787;SDS011;2920;48.158;12.254;2023-03-26T19:10:42;0.28;;;0.15;;
5787;SDS011;2920;48.158;12.254;2023-03-26T19:13:12;0.32;;;0.28;;
5787;SDS011;2920;48.158;12.254;2023-03-26T19:15:39;0.17;;;0.10;;
5787;SDS011;2920;48.158;12.254;2023-03-26T19:18:06;2.17;;;0.30;;
5787;SDS011;2920;48.158;12.254;2023-03-26T19:23:17;0.20;;;0.20;;
5787;SDS011;2920;48.158;12.254;2023-03-26T19:25:51;0.40;;;0.32;;
5787;SDS011;2920;48.158;12.254;2023-03-26T19:30:58;0.52;;;0.10;;
5787;SDS011;2920;48.158;12.254;2023-03-26T19:33:32;1.85;;;0.25;;
5787;SDS011;2920;48.158;12.254;2023-03-26T19:36:04;0.00;;;0.00;;
5787;SDS011;2920;48.158;12.254;2023-03-26T19:38:42;0.47;;;0.35;;
5787;SDS011;2920;48.158;12.254;2023-03-26T19:41:21;0.20;;;0.20;;
5787;SDS011;2920;48.158;12.254;2023-03-26T19:43:52;0.70;;;0.20;;
5787;SDS011;2920;48.158;12.254;2023-03-26T19:46:20;4.30;;;1.13;;
5787;SDS011;2920;48.158;12.254;2023-03-26T19:48:46;0.45;;;0.20;;
5787;SDS011;2920;48.158;12.254;2023-03-26T19:51:23;0.40;;;0.13;;
5787;SDS011;2920;48.158;12.254;2023-03-26T19:53:51;0.13;;;0.13;;
5787;SDS011;2920;48.158;12.254;2023-03-26T19:56:17;0.22;;;0.17;;
5787;SDS011;2920;48.158;12.254;2023-03-26T19:58:45;0.40;;;0.22;;
5787;SDS011;2920;48.158;12.254;2023-03-26T20:01:17;0.20;;;0.20;;
5787;SDS011;2920;48.158;12.254;2023-03-26T20:03:45;0.00;;;0.00;;
5787;SDS011;2920;48.158;12.254;2023-03-26T20:06:13;0.32;;;0.30;;
5787;SDS011;2920;48.158;12.254;2023-03-26T20:08:40;1.15;;;0.55;;
5787;SDS011;2920;48.158;12.254;2023-03-26T20:11:13;0.40;;;0.30;;
5787;SDS011;2920;48.158;12.254;2023-03-26T20:13:41;0.20;;;0.20;;
5787;SDS011;2920;48.158;12.254;2023-03-26T20:16:07;0.95;;;0.55;;
5787;SDS011;2920;48.158;12.254;2023-03-26T20:18:36;0.80;;;0.30;;
5787;SDS011;2920;48.158;12.254;2023-03-26T20:21:07;0.40;;;0.30;;
5787;SDS011;2920;48.158;12.254;2023-03-26T20:23:34;1.20;;;0.50;;
5787;SDS011;2920;48.158;12.254;2023-03-26T20:25:59;1.10;;;0.80;;
5787;SDS011;2920;48.158;12.254;2023-03-26T20:28:24;0.20;;;0.20;;
5787;SDS011;2920;48.158;12.254;2023-03-26T20:30:50;1.00;;;0.40;;
5787;SDS011;2920;48.158;12.254;2023-03-26T20:33:19;0.47;;;0.47;;
5787;SDS011;2920;48.158;12.254;2023-03-26T20:35:49;0.70;;;0.70;;
5787;SDS011;2920;48.158;12.254;2023-03-26T20:38:14;0.30;;;0.30;;
5787;SDS011;2920;48.158;12.254;2023-03-26T20:40:40;0.75;;;0.32;;
5787;SDS011;2920;48.158;12.254;2023-03-26T20:43:10;0.40;;;0.35;;
5787;SDS011;2920;48.158;12.254;2023-03-26T20:45:36;0.20;;;0.17;;
5787;SDS011;2920;48.158;12.254;2023-03-26T20:48:02;0.17;;;0.17;;
5787;SDS011;2920;48.158;12.254;2023-03-26T20:50:28;0.52;;;0.43;;
5787;SDS011;2920;48.158;12.254;2023-03-26T20:52:53;0.13;;;0.13;;
5787;SDS011;2920;48.158;12.254;2023-03-26T20:55:19;0.30;;;0.30;;
5787;SDS011;2920;48.158;12.254;2023-03-26T20:57:47;0.50;;;0.23;;
5787;SDS011;2920;48.158;12.254;2023-03-26T21:00:14;0.63;;;0.28;;
5787;SDS011;2920;48.158;12.254;2023-03-26T21:05:09;1.40;;;0.22;;
5787;SDS011;2920;48.158;12.254;2023-03-26T21:07:39;0.10;;;0.10;;
5787;SDS011;2920;48.158;12.254;2023-03-26T21:10:11;1.80;;;0.40;;
5787;SDS011;2920;48.158;12.254;2023-03-26T21:15:09;1.40;;;0.43;;
5787;SDS011;2920;48.158;12.254;2023-03-26T21:17:35;1.75;;;0.50;;
5787;SDS011;2920;48.158;12.254;2023-03-26T21:20:02;0.30;;;0.30;;
5787;SDS011;2920;48.158;12.254;2023-03-26T21:22:56;0.57;;;0.30;;
5787;SDS011;2920;48.158;12.254;2023-03-26T21:30:42;0.85;;;0.55;;
5787;SDS011;2920;48.158;12.254;2023-03-26T21:33:08;0.77;;;0.55;;
5787;SDS011;2920;48.158;12.254;2023-03-26T21:35:33;0.82;;;0.50;;
5787;SDS011;2920;48.158;12.254;2023-03-26T21:37:59;0.30;;;0.28;;